LIMP/PMF METAR and TAF weather

Enter ICAO airport designator
Station Type Date Time Source
LIMP METAR 2022/01/26 13:50 UTC NOAA

LIMP 261350Z 26003KT 230V290 2500 BR SCT007 BKN015 06/04 Q1027


Station Type Date Time Source
LIMP Decoded METAR 2022/01/26 13:50 UTC NOAA

Parma, Italy (LIMP) 44-49-17N 010-17-41E
Jan 26, 2022 - 08:50 AM EST / 2022.01.26 1350 UTC
Wind: from the W (260 degrees) at 3 MPH (3 KT) (direction variable):0
Visibility: 1 mile(s):0
Sky conditions: mostly cloudy
Weather: mist
Temperature: 42 F (6 C)
Dew Point: 39 F (4 C)
Relative Humidity: 86%
Pressure (altimeter): 30.33 in. Hg (1027 hPa)
ob: LIMP 261350Z 26003KT 230V290 2500 BR SCT007 BKN015 06/04 Q1027
cycle: 14

Station Type Date Time Source
LIMP TAF 2022/01/26 12:21 UTC NOAA

TAF TAF LIMP 261100Z 2612/2712 VRB05KT 2000 BR BKN010
BECMG 2619/2621 0500 FG BKN003
TEMPO 2621/2707 0300 FZFG
BECMG 2710/2712 1500 BR BKN010

Example: see airport list